Terminal Aerodrome Forecast
Issued by NWS

Home | Current Version | Previous Version | Text Only | Print | Product List | Glossary On
Versions: 1 2 3 4 5 6 7 8 9 10 11 12 13
000
FTUS45 KSLC 312339
TAFOGD
TAF
KOGD 312339Z 0100/0124 VRB05KT P6SM SCT120 BKN200
     FM010200 18012G18KT P6SM SCT120 BKN200
     FM011700 17015G25KT P6SM SCT080 BKN150
     FM011900 18020G30KT P6SM -SHRA SCT040 BKN080=

USA.gov is the U.S. government's official web portal to all federal, state and local government web resources and services.